Nederlandse vliegveldverwachtingen (TAF)

Luchtvaartmeteorologische informatie voor operationeel gebruik en vluchtvoorbereiding is beschikbaar op www.luchtvaartmeteo.nl.

ZCZC
FT170500 EHEH     EINDHOVEN/EINDHOVEN   NLD   22 m.
TAF COR EHEH 170557Z 1706/1812 VRB02KT CAVOK
    BECMG 1709/1711 22015KT FEW015 BKN030
    PROB40 TEMPO 1715/1719 4500 SHRA RA SCT008 SCT015CB
    BKN020
    BECMG 1720/1722 20005KT
    PROB40 TEMP0 1801/1810 4500 SHRA RA SCT008 SCT015CB
    BKN020=

ZCZC
FC170800 EHVK     VOLKEL/VOLKEL   NLD   21 m.
TAF EHVK 170843Z 1709/1721 20009KT CAVOK
    BECMG 1711/1713 21012KT BKN020
    PROB30 TEMPO 1714/1719 4500 RA SCT010 BKN015=

ZCZC
FC170800 EHLW     LEEUWARDEN/LEEUWARDEN   NLD   1 m.
TAF EHLW 170847Z 1709/1721 17008KT 8000 RADZ SCT030 BKN050
    BECMG 1709/1712 21013G23KT FEW012 SCT020 BKN030
    BECMG 1712/1714 4500 -RADZ SCT012 BKN015
    PROB30 TEMPO 1712/1714 SCT006 BKN012 BKN015
    BECMG 1715/1718 9999 NSW FEW015 SCT020=

ZCZC
FC170800 EHWO AAA WOENSDRECHT/WOENSDRECHT   NLD   19 m.
TAF AMD EHWO 171007Z 1710/1721 23012KT 9999 SCT008 BKN012
    OVC030
    TEMPO 1710/1715 22012G22KT 3000 RADZ FEW004 SCT006 BKN012
    PROB40 TEMPO 1713/1716 SCT012 SCT015CB BKN020
    BECMG 1716/1718 SCT020=

ZCZC
FC170800 EHGR CCB GILZE-RIJEN/GILZE-RIJEN   NLD   14 m.
TAF AMD EHGR 170842Z 1710/1721 19010KT 9999 FEW012 SCT015
    OVC020
    BECMG 1710/1712 FEW008 SCT012 OVC020
    TEMPO 1710/1715 3000 RADZ FEW005 SCT007 OVC020
    BECMG 1714/1716 SCT012 BKN020
    PROB40 TEMPO 1716/1718 SCT012 SCT015CB BKN020
    BECMG 1718/1720 SCT020=

ZCZC
FC170900 EHKD AAA DE KOOY/DE KOOY   NLD   1 m.
TAF AMD EHKD 171100Z 1711/1721 19010KT 9999 SCT010 BKN015
    OVC020
    BECMG 1710/1712 21013G23KT FEW006 SCT012 BKN015
    TEMPO 1712/1716 4500 -RADZ SCT008 BKN015 OVC025
    PROB30 TEMPO 1713/1716 SCT006 BKN012 OVC015
    BECMG 1715/1718 9999 NSW FEW015 SCT020
    BECMG 1718/1720 SCT020=

ZCZC
FT171100 EHAM     AMSTERDAM/SCHIPHOL   NLD   -3 m.
TAF EHAM 171052Z 1712/1818 20012KT 9999 -RA SCT008 BKN012
    TEMPO 1712/1715 5000 RADZ BKN008
    BECMG 1714/1716 23015KT BKN025
    BECMG 1720/1723 19007KT
    PROB30 1722/1803 5000 BR BKN008
    BECMG 1802/1805 6000 RA SHRA BKN005 SCT030CB
    BECMG 1806/1809 23013KT 9999 NSW SCT012 BKN020
    PROB30 TEMPO 1810/1816 25015G25KT 7000 SHRA SCT020CB=

ZCZC
FT171100 EHBK     MAASTRICHT/MAASTRICHT-AACHEN   NLD   114 m.
TAF EHBK 171042Z 1712/1818 22012KT 9999 BKN030
    TEMPO 1712/1720 6000 SHRA RA BKN018 SCT025CB
    BECMG 1720/1723 19006KT
    BECMG 1803/1806 22011KT
    TEMPO 1804/1811 6000 SHRA RA BKN015 SCT020CB
    BECMG 1815/1818 25007KT
    PROB30 TEMPO 1815/1818 7000 SHRA SCT035CB BKN040=

ZCZC
FT171100 EHGG     GRONINGEN/EELDE   NLD   5 m.
TAF EHGG 171042Z 1712/1818 21014KT 8000 -RA OVC030
    TEMPO 1712/1718 4000 RADZ SHRA BKN012 SCT015CB
    BECMG 1717/1720 9999 NSW SCT020
    BECMG 1801/1803 19008KT 4000 BR BKN012
    PROB40 TEMPO 1802/1806 2000 BKN004
    TEMPO 1806/1809 SHRA RA BKN006 BKN015CB
    BECMG 1808/1810 23015KT 9999 NSW SCT025
    PROB30 TEMPO 1814/1817 7000 SHRA FEW020TCU BKN030=

ZCZC
FT171100 EHRD     ROTTERDAM/THE HAGUE AIRPORT   NLD   -5 m.
TAF EHRD 171052Z 1712/1818 20012KT 9999 -RA SCT008 BKN012
    TEMPO 1712/1715 5000 RADZ BKN008
    BECMG 1714/1716 23015KT BKN025
    BECMG 1720/1723 19007KT
    PROB30 1722/1803 5000 BR BKN008
    BECMG 1802/1805 6000 RA SHRA BKN005 SCT030CB
    BECMG 1806/1809 23013KT 9999 NSW SCT012 BKN020
    PROB30 TEMPO 1810/1816 25015G25KT 7000 SHRA SCT020CB=

17/08/2017 13.30 uur LT